Terminal Aerodrome Forecast
Issued by NWS Kansas City/Pleasant Hill, MO

Home | Current Version | Previous Version | Text Only | Print | Product List | Glossary On
Versions: 1 2 3 4 5 6 7 8 9 10 11 12 13 14 15 16 17 18
000
FTUS43 KEAX 260500
TAFMCI
TAF
KMCI 260520Z 2606/2706 17012KT P6SM OVC080
     FM260800 20010KT P6SM -RASN OVC035
     FM261300 29012KT P6SM OVC025
     FM261600 32016G25KT P6SM OVC025
     FM270000 33011KT P6SM OVC050=

USA.gov is the U.S. government's official web portal to all federal, state and local government web resources and services.